Terminal Aerodrome Forecast
Issued by NWS

Home | Current Version | Previous Version | Graphics & Text | Print | Product List | Glossary On
Versions: 1 2 3 4 5 6 7 8 9 10 11 12 13 14 15 16 17 18 19 20 21 22 23 24
000
FTUS43 KGRB 100444 AAA
TAFCWA
TAF AMD
KCWA 100444Z 1005/1024 25007KT P6SM -SN SCT035 BKN050
      TEMPO 1005/1008 2SM -SHSN BKN030
     FM100900 29004KT P6SM BKN023
     FM101700 32007KT P6SM BKN035
      AMD LTD TO CLD VIS AND WIND TIL 101200=

USA.gov is the U.S. government's official web portal to all federal, state and local government web resources and services.